Aviation Digital Data Service (ADDS)

Output produced by METARs form (1813 UTC 29 May 2015)
found at http://www.aviationweather.gov/adds/metars/
 
KATL 291734Z 2918/3024 13008KT P6SM VCSH BKN040 
     FM300200 12005KT P6SM FEW040 SCT120 
     FM301100 13005KT P6SM FEW005 
     FM301600 14007KT P6SM BKN040